Vega Nikolas — A8QD2 — position and weather

sailwx.info

Track history (hours):
 
Tides and Currents Weather Stations Pressure Air Temp Water Temp Dewpoint Dewpoint Depression Visibility Wind Speed Wind Dir Waves Ship Positions

Vega Nikolas

Last reported at 2014-Jul-23 12:32 UTC. Time now 2014-Jul-23 13:34 UTC.
Position N 40°41' W 074°01'.

Length 139 m; draft 7.1 m.

Type: Ship (hazmat cat A). MMSI: 636091613.

Date/timePositionNaut miles runAvg speedWind from/ knotsBaromVisibWave heightAir tempDewpointWater temp
2014-Jul-23 12:32N 40°41' W 074°01'0 0.0
2014-Jul-23 11:32N 40°41' W 074°01'0 0.0
2014-Jul-23 10:29N 40°41' W 074°01'3 3.2
2014-Jul-23 09:34N 40°39' W 074°03'1212.2
2014-Jul-23 08:33N 40°29' W 073°54'9 9.5
2014-Jul-23 07:33N 40°24' W 073°43'8 7.6
2014-Jul-23 06:33N 40°20' W 073°35'1010.3
2014-Jul-23 05:34N 40°14' W 073°24'1312.6
2014-Jul-23 04:33N 40°06' W 073°11'1312.8
2014-Jul-23 03:33N 39°55' W 073°03'1312.6
2014-Jul-23 02:33N 39°44' W 072°54'1312.7
2014-Jul-23 01:33N 39°34' W 072°45'1312.6
2014-Jul-23 00:33N 39°23' W 072°36'1312.4
2014-Jul-22 23:32N 39°13' W 072°27'1312.9
2014-Jul-22 22:34N 39°02' W 072°18'1210.8
2014-Jul-22 21:25N 38°51' W 072°11'0 0.3
2014-Jul-22 20:30N 38°51' W 072°11'1211.0
2014-Jul-22 19:22N 38°40' W 072°03'1414.7
2014-Jul-22 18:26N 38°28' W 071°55'9211.6
2014-Jul-22 10:29N 37°04' W 071°07'1312.3
2014-Jul-22 09:28N 36°51' W 071°04'  
Track history (hours):
 
Tides and Currents Weather Stations Pressure Air Temp Water Temp Dewpoint Dewpoint Depression Visibility Wind Speed Wind Dir Waves Ship Positions

Vega Nikolas

Last reported at 2014-Jul-23 12:32 UTC. Time now 2014-Jul-23 13:34 UTC.
Position N 40°41' W 074°01'.

Length 139 m; draft 7.1 m.

Type: Ship (hazmat cat A). MMSI: 636091613.

Date/timePositionNaut miles runAvg speedWind from/ knotsBaromVisibWave heightAir tempDewpointWater temp
2014-Jul-23 12:32N 40°41' W 074°01'0 0.0
2014-Jul-23 11:32N 40°41' W 074°01'0 0.0
2014-Jul-23 10:29N 40°41' W 074°01'3 3.2
2014-Jul-23 09:34N 40°39' W 074°03'1212.2
2014-Jul-23 08:33N 40°29' W 073°54'9 9.5
2014-Jul-23 07:33N 40°24' W 073°43'8 7.6
2014-Jul-23 06:33N 40°20' W 073°35'1010.3
2014-Jul-23 05:34N 40°14' W 073°24'1312.6
2014-Jul-23 04:33N 40°06' W 073°11'1312.8
2014-Jul-23 03:33N 39°55' W 073°03'1312.6
2014-Jul-23 02:33N 39°44' W 072°54'1312.7
2014-Jul-23 01:33N 39°34' W 072°45'1312.6
2014-Jul-23 00:33N 39°23' W 072°36'1312.4
2014-Jul-22 23:32N 39°13' W 072°27'1312.9
2014-Jul-22 22:34N 39°02' W 072°18'1210.8
2014-Jul-22 21:25N 38°51' W 072°11'0 0.3
2014-Jul-22 20:30N 38°51' W 072°11'1211.0
2014-Jul-22 19:22N 38°40' W 072°03'1414.7
2014-Jul-22 18:26N 38°28' W 071°55'9211.6
2014-Jul-22 10:29N 37°04' W 071°07'1312.3
2014-Jul-22 09:28N 36°51' W 071°04'  

Dump ship's entire track history